sensor_id;sensor_type;location;lat;lon;timestamp;pressure;altitude;pressure_sealevel;temperature;humidity
45345;BME280;31078;48.304;11.896;2022-12-16T00:01:28;94692.94;;;-0.31;100.00
45345;BME280;31078;48.304;11.896;2022-12-16T00:03:56;94696.91;;;-0.28;100.00
45345;BME280;31078;48.304;11.896;2022-12-16T00:06:24;94697.69;;;-0.28;100.00
45345;BME280;31078;48.304;11.896;2022-12-16T00:08:52;94704.13;;;-0.29;100.00
45345;BME280;31078;48.304;11.896;2022-12-16T00:11:18;94705.16;;;-0.24;100.00
45345;BME280;31078;48.304;11.896;2022-12-16T00:13:46;94703.84;;;-0.27;100.00
45345;BME280;31078;48.304;11.896;2022-12-16T00:16:14;94700.25;;;-0.36;100.00
45345;BME280;31078;48.304;11.896;2022-12-16T00:18:42;94705.78;;;-0.33;100.00
45345;BME280;31078;48.304;11.896;2022-12-16T00:21:09;94707.59;;;-0.28;100.00
45345;BME280;31078;48.304;11.896;2022-12-16T00:23:36;94699.88;;;-0.30;100.00
45345;BME280;31078;48.304;11.896;2022-12-16T00:26:03;94706.81;;;-0.29;100.00
45345;BME280;31078;48.304;11.896;2022-12-16T00:28:30;94707.81;;;-0.24;100.00
45345;BME280;31078;48.304;11.896;2022-12-16T00:30:57;94711.00;;;-0.22;100.00
45345;BME280;31078;48.304;11.896;2022-12-16T00:33:25;94709.41;;;-0.23;100.00
45345;BME280;31078;48.304;11.896;2022-12-16T00:35:54;94714.75;;;-0.23;100.00
45345;BME280;31078;48.304;11.896;2022-12-16T00:38:22;94703.03;;;-0.28;100.00
45345;BME280;31078;48.304;11.896;2022-12-16T00:40:49;94714.03;;;-0.29;100.00
45345;BME280;31078;48.304;11.896;2022-12-16T00:43:15;94713.25;;;-0.30;100.00
45345;BME280;31078;48.304;11.896;2022-12-16T00:45:43;94716.94;;;-0.25;100.00
45345;BME280;31078;48.304;11.896;2022-12-16T00:48:10;94716.41;;;-0.28;100.00
45345;BME280;31078;48.304;11.896;2022-12-16T00:50:36;94721.19;;;-0.24;100.00
45345;BME280;31078;48.304;11.896;2022-12-16T00:53:05;94726.25;;;-0.23;100.00
45345;BME280;31078;48.304;11.896;2022-12-16T00:55:31;94724.44;;;-0.28;100.00
45345;BME280;31078;48.304;11.896;2022-12-16T00:57:58;94726.03;;;-0.27;100.00
45345;BME280;31078;48.304;11.896;2022-12-16T01:00:25;94735.72;;;-0.31;100.00
45345;BME280;31078;48.304;11.896;2022-12-16T01:02:51;94736.72;;;-0.27;100.00
45345;BME280;31078;48.304;11.896;2022-12-16T01:05:20;94732.75;;;-0.29;100.00
45345;BME280;31078;48.304;11.896;2022-12-16T01:07:51;94734.63;;;-0.30;100.00
45345;BME280;31078;48.304;11.896;2022-12-16T01:10:19;94740.50;;;-0.28;100.00
45345;BME280;31078;48.304;11.896;2022-12-16T01:12:46;94744.81;;;-0.32;100.00
45345;BME280;31078;48.304;11.896;2022-12-16T01:15:12;94743.47;;;-0.29;100.00
45345;BME280;31078;48.304;11.896;2022-12-16T01:17:39;94742.44;;;-0.33;100.00
45345;BME280;31078;48.304;11.896;2022-12-16T01:20:07;94745.97;;;-0.38;100.00
45345;BME280;31078;48.304;11.896;2022-12-16T01:22:34;94755.81;;;-0.33;100.00
45345;BME280;31078;48.304;11.896;2022-12-16T01:25:02;94759.28;;;-0.33;100.00
45345;BME280;31078;48.304;11.896;2022-12-16T01:27:30;94754.28;;;-0.39;100.00
45345;BME280;31078;48.304;11.896;2022-12-16T01:29:56;94759.06;;;-0.36;100.00
45345;BME280;31078;48.304;11.896;2022-12-16T01:32:23;94752.34;;;-0.34;100.00
45345;BME280;31078;48.304;11.896;2022-12-16T01:34:53;94762.69;;;-0.46;100.00
45345;BME280;31078;48.304;11.896;2022-12-16T01:37:19;94765.34;;;-0.46;100.00
45345;BME280;31078;48.304;11.896;2022-12-16T01:39:46;94762.31;;;-0.39;100.00
45345;BME280;31078;48.304;11.896;2022-12-16T01:42:14;94756.25;;;-0.45;100.00
45345;BME280;31078;48.304;11.896;2022-12-16T01:44:44;94759.63;;;-0.39;100.00
45345;BME280;31078;48.304;11.896;2022-12-16T01:47:14;94761.59;;;-0.45;100.00
45345;BME280;31078;48.304;11.896;2022-12-16T01:49:43;94758.84;;;-0.40;100.00
45345;BME280;31078;48.304;11.896;2022-12-16T01:52:15;94767.38;;;-0.38;100.00
45345;BME280;31078;48.304;11.896;2022-12-16T01:54:47;94768.94;;;-0.37;100.00
45345;BME280;31078;48.304;11.896;2022-12-16T01:57:19;94774.81;;;-0.35;100.00
45345;BME280;31078;48.304;11.896;2022-12-16T01:59:50;94775.69;;;-0.39;100.00
45345;BME280;31078;48.304;11.896;2022-12-16T02:02:19;94770.34;;;-0.39;100.00
45345;BME280;31078;48.304;11.896;2022-12-16T02:04:45;94773.31;;;-0.41;100.00
45345;BME280;31078;48.304;11.896;2022-12-16T02:07:26;94772.50;;;-0.41;100.00
45345;BME280;31078;48.304;11.896;2022-12-16T02:09:53;94774.16;;;-0.45;100.00
45345;BME280;31078;48.304;11.896;2022-12-16T02:12:26;94772.84;;;-0.48;100.00
45345;BME280;31078;48.304;11.896;2022-12-16T02:15:02;94777.41;;;-0.48;100.00
45345;BME280;31078;48.304;11.896;2022-12-16T02:17:36;94770.94;;;-0.66;100.00
45345;BME280;31078;48.304;11.896;2022-12-16T02:20:14;94778.56;;;-0.55;100.00
45345;BME280;31078;48.304;11.896;2022-12-16T02:22:58;94779.88;;;-0.52;100.00
45345;BME280;31078;48.304;11.896;2022-12-16T02:25:46;94784.13;;;-0.51;100.00
45345;BME280;31078;48.304;11.896;2022-12-16T02:28:31;94780.25;;;-0.64;100.00
45345;BME280;31078;48.304;11.896;2022-12-16T02:31:14;94778.00;;;-0.75;100.00
45345;BME280;31078;48.304;11.896;2022-12-16T02:34:01;94770.94;;;-0.66;100.00
45345;BME280;31078;48.304;11.896;2022-12-16T02:36:40;94784.00;;;-0.65;100.00
45345;BME280;31078;48.304;11.896;2022-12-16T02:39:12;94792.22;;;-0.56;100.00
45345;BME280;31078;48.304;11.896;2022-12-16T02:41:43;94792.63;;;-0.68;100.00
45345;BME280;31078;48.304;11.896;2022-12-16T02:44:12;94794.16;;;-0.62;100.00
45345;BME280;31078;48.304;11.896;2022-12-16T02:46:42;94798.19;;;-0.64;100.00
45345;BME280;31078;48.304;11.896;2022-12-16T02:52:18;94814.41;;;-0.56;100.00
45345;BME280;31078;48.304;11.896;2022-12-16T02:54:47;94810.94;;;-0.56;100.00
45345;BME280;31078;48.304;11.896;2022-12-16T03:00:08;94824.47;;;-0.71;100.00
45345;BME280;31078;48.304;11.896;2022-12-16T03:02:42;94827.59;;;-0.64;100.00
45345;BME280;31078;48.304;11.896;2022-12-16T03:05:15;94828.38;;;-0.64;100.00
45345;BME280;31078;48.304;11.896;2022-12-16T03:07:46;94831.78;;;-0.58;100.00
45345;BME280;31078;48.304;11.896;2022-12-16T03:10:16;94832.38;;;-0.61;100.00
45345;BME280;31078;48.304;11.896;2022-12-16T03:12:45;94832.94;;;-0.64;100.00
45345;BME280;31078;48.304;11.896;2022-12-16T03:15:14;94826.56;;;-0.68;100.00
45345;BME280;31078;48.304;11.896;2022-12-16T03:17:45;94832.38;;;-0.61;100.00
45345;BME280;31078;48.304;11.896;2022-12-16T03:20:17;94823.25;;;-0.60;100.00
45345;BME280;31078;48.304;11.896;2022-12-16T03:22:47;94836.19;;;-0.67;100.00
45345;BME280;31078;48.304;11.896;2022-12-16T03:25:15;94835.31;;;-0.63;100.00
45345;BME280;31078;48.304;11.896;2022-12-16T03:27:47;94836.34;;;-0.59;100.00
45345;BME280;31078;48.304;11.896;2022-12-16T03:30:19;94844.66;;;-0.60;100.00
45345;BME280;31078;48.304;11.896;2022-12-16T03:32:53;94846.88;;;-0.67;100.00
45345;BME280;31078;48.304;11.896;2022-12-16T03:35:26;94845.06;;;-0.72;100.00
45345;BME280;31078;48.304;11.896;2022-12-16T03:37:56;94838.63;;;-0.71;100.00
45345;BME280;31078;48.304;11.896;2022-12-16T03:40:26;94846.13;;;-0.73;100.00
45345;BME280;31078;48.304;11.896;2022-12-16T03:42:55;94843.72;;;-0.74;100.00
45345;BME280;31078;48.304;11.896;2022-12-16T03:45:24;94846.94;;;-0.72;100.00
45345;BME280;31078;48.304;11.896;2022-12-16T03:47:56;94843.94;;;-0.95;100.00
45345;BME280;31078;48.304;11.896;2022-12-16T03:50:25;94837.00;;;-0.96;100.00
45345;BME280;31078;48.304;11.896;2022-12-16T03:52:53;94837.47;;;-0.89;100.00
45345;BME280;31078;48.304;11.896;2022-12-16T03:55:20;94835.88;;;-0.90;100.00
45345;BME280;31078;48.304;11.896;2022-12-16T03:57:46;94843.09;;;-0.90;100.00
45345;BME280;31078;48.304;11.896;2022-12-16T04:00:13;94849.81;;;-0.93;100.00
45345;BME280;31078;48.304;11.896;2022-12-16T04:02:40;94855.31;;;-0.84;100.00
45345;BME280;31078;48.304;11.896;2022-12-16T04:05:09;94853.50;;;-0.89;100.00
45345;BME280;31078;48.304;11.896;2022-12-16T04:07:36;94845.75;;;-0.90;100.00
45345;BME280;31078;48.304;11.896;2022-12-16T04:10:03;94856.22;;;-0.94;100.00
45345;BME280;31078;48.304;11.896;2022-12-16T04:12:30;94859.16;;;-0.95;100.00
45345;BME280;31078;48.304;11.896;2022-12-16T04:15:14;94865.22;;;-0.85;100.00
45345;BME280;31078;48.304;11.896;2022-12-16T04:17:58;94873.75;;;-0.83;100.00
45345;BME280;31078;48.304;11.896;2022-12-16T04:20:44;94881.19;;;-0.80;100.00
45345;BME280;31078;48.304;11.896;2022-12-16T04:23:31;94883.38;;;-0.82;100.00
45345;BME280;31078;48.304;11.896;2022-12-16T04:26:16;94883.00;;;-0.99;100.00
45345;BME280;31078;48.304;11.896;2022-12-16T04:28:43;94880.31;;;-0.99;100.00
45345;BME280;31078;48.304;11.896;2022-12-16T04:31:09;94883.50;;;-0.97;100.00
45345;BME280;31078;48.304;11.896;2022-12-16T04:33:36;94879.69;;;-0.91;100.00
45345;BME280;31078;48.304;11.896;2022-12-16T04:36:22;94898.66;;;-0.87;100.00
45345;BME280;31078;48.304;11.896;2022-12-16T04:39:06;94896.31;;;-0.94;100.00
45345;BME280;31078;48.304;11.896;2022-12-16T04:41:51;94900.03;;;-0.95;100.00
45345;BME280;31078;48.304;11.896;2022-12-16T04:44:35;94917.78;;;-1.04;100.00
45345;BME280;31078;48.304;11.896;2022-12-16T04:47:19;94917.72;;;-0.99;100.00
45345;BME280;31078;48.304;11.896;2022-12-16T04:50:04;94920.38;;;-0.94;100.00
45345;BME280;31078;48.304;11.896;2022-12-16T04:52:50;94923.63;;;-1.02;100.00
45345;BME280;31078;48.304;11.896;2022-12-16T04:55:35;94920.66;;;-1.35;100.00
45345;BME280;31078;48.304;11.896;2022-12-16T04:58:19;94923.31;;;-1.29;100.00
45345;BME280;31078;48.304;11.896;2022-12-16T05:01:02;94917.59;;;-1.57;100.00
45345;BME280;31078;48.304;11.896;2022-12-16T05:03:46;94915.97;;;-1.53;100.00
45345;BME280;31078;48.304;11.896;2022-12-16T05:06:30;94912.25;;;-1.57;100.00
45345;BME280;31078;48.304;11.896;2022-12-16T05:09:15;94929.84;;;-1.51;100.00
45345;BME280;31078;48.304;11.896;2022-12-16T05:11:59;94928.78;;;-1.50;100.00
45345;BME280;31078;48.304;11.896;2022-12-16T05:14:43;94939.78;;;-1.56;100.00
45345;BME280;31078;48.304;11.896;2022-12-16T05:17:27;94949.06;;;-1.49;100.00
45345;BME280;31078;48.304;11.896;2022-12-16T05:20:11;94945.91;;;-1.56;100.00
45345;BME280;31078;48.304;11.896;2022-12-16T05:22:55;94949.69;;;-1.72;100.00
45345;BME280;31078;48.304;11.896;2022-12-16T05:25:41;94962.50;;;-1.69;100.00
45345;BME280;31078;48.304;11.896;2022-12-16T05:28:25;94967.31;;;-1.66;100.00
45345;BME280;31078;48.304;11.896;2022-12-16T05:31:09;94982.31;;;-1.80;100.00
45345;BME280;31078;48.304;11.896;2022-12-16T05:33:53;94978.56;;;-1.79;100.00
45345;BME280;31078;48.304;11.896;2022-12-16T05:36:37;94982.88;;;-1.89;100.00
45345;BME280;31078;48.304;11.896;2022-12-16T05:39:20;94976.94;;;-1.75;100.00
45345;BME280;31078;48.304;11.896;2022-12-16T05:42:06;94972.69;;;-1.76;100.00
45345;BME280;31078;48.304;11.896;2022-12-16T05:44:50;94976.38;;;-1.67;100.00
45345;BME280;31078;48.304;11.896;2022-12-16T05:47:34;94973.19;;;-1.69;100.00
45345;BME280;31078;48.304;11.896;2022-12-16T05:50:18;94972.16;;;-1.78;100.00
45345;BME280;31078;48.304;11.896;2022-12-16T05:53:02;94979.13;;;-1.82;100.00
45345;BME280;31078;48.304;11.896;2022-12-16T05:55:46;94970.56;;;-1.79;100.00
45345;BME280;31078;48.304;11.896;2022-12-16T05:58:46;94971.28;;;-1.64;100.00
45345;BME280;31078;48.304;11.896;2022-12-16T06:01:30;94980.72;;;-1.81;100.00
45345;BME280;31078;48.304;11.896;2022-12-16T06:04:14;94990.88;;;-1.89;100.00
45345;BME280;31078;48.304;11.896;2022-12-16T06:06:58;94995.69;;;-1.91;100.00
45345;BME280;31078;48.304;11.896;2022-12-16T06:09:42;95001.00;;;-1.86;100.00
45345;BME280;31078;48.304;11.896;2022-12-16T06:12:26;95009.31;;;-1.97;100.00
45345;BME280;31078;48.304;11.896;2022-12-16T06:15:11;95011.19;;;-1.98;100.00
45345;BME280;31078;48.304;11.896;2022-12-16T06:17:55;95006.34;;;-1.86;100.00
45345;BME280;31078;48.304;11.896;2022-12-16T06:20:39;95019.72;;;-2.01;100.00
45345;BME280;31078;48.304;11.896;2022-12-16T06:23:23;95034.13;;;-2.02;100.00
45345;BME280;31078;48.304;11.896;2022-12-16T06:26:07;95037.00;;;-1.83;100.00
45345;BME280;31078;48.304;11.896;2022-12-16T06:28:51;95034.13;;;-1.92;100.00
45345;BME280;31078;48.304;11.896;2022-12-16T06:31:37;95040.47;;;-1.77;100.00
45345;BME280;31078;48.304;11.896;2022-12-16T06:34:21;95043.19;;;-1.88;100.00
45345;BME280;31078;48.304;11.896;2022-12-16T06:37:05;95050.34;;;-1.83;100.00
45345;BME280;31078;48.304;11.896;2022-12-16T06:39:49;95046.34;;;-1.80;100.00
45345;BME280;31078;48.304;11.896;2022-12-16T06:42:33;95051.16;;;-1.77;100.00
45345;BME280;31078;48.304;11.896;2022-12-16T06:45:17;95065.31;;;-1.82;100.00
45345;BME280;31078;48.304;11.896;2022-12-16T06:47:58;95074.09;;;-1.76;100.00
45345;BME280;31078;48.304;11.896;2022-12-16T06:50:43;95074.59;;;-1.69;100.00
45345;BME280;31078;48.304;11.896;2022-12-16T06:53:27;95073.31;;;-1.77;100.00
45345;BME280;31078;48.304;11.896;2022-12-16T06:56:11;95083.13;;;-1.67;100.00
45345;BME280;31078;48.304;11.896;2022-12-16T06:58:55;95087.41;;;-1.61;100.00
45345;BME280;31078;48.304;11.896;2022-12-16T07:01:39;95092.47;;;-1.65;100.00
45345;BME280;31078;48.304;11.896;2022-12-16T07:04:25;95098.09;;;-1.66;100.00
45345;BME280;31078;48.304;11.896;2022-12-16T07:07:09;95105.03;;;-1.75;100.00
45345;BME280;31078;48.304;11.896;2022-12-16T07:10:05;95106.13;;;-1.76;100.00
45345;BME280;31078;48.304;11.896;2022-12-16T07:12:49;95109.56;;;-1.71;100.00
45345;BME280;31078;48.304;11.896;2022-12-16T07:15:33;95111.16;;;-1.60;100.00
45345;BME280;31078;48.304;11.896;2022-12-16T07:18:17;95113.03;;;-1.65;100.00
45345;BME280;31078;48.304;11.896;2022-12-16T07:21:04;95115.72;;;-1.75;100.00
45345;BME280;31078;48.304;11.896;2022-12-16T07:23:48;95125.31;;;-1.74;100.00
45345;BME280;31078;48.304;11.896;2022-12-16T07:26:32;95129.56;;;-1.68;100.00
45345;BME280;31078;48.304;11.896;2022-12-16T07:29:16;95136.00;;;-1.85;100.00
45345;BME280;31078;48.304;11.896;2022-12-16T07:32:00;95136.56;;;-1.77;100.00
45345;BME280;31078;48.304;11.896;2022-12-16T07:34:44;95149.63;;;-1.86;100.00
45345;BME280;31078;48.304;11.896;2022-12-16T07:37:28;95148.28;;;-1.84;100.00
45345;BME280;31078;48.304;11.896;2022-12-16T07:40:12;95147.75;;;-1.91;100.00
45345;BME280;31078;48.304;11.896;2022-12-16T07:42:56;95150.94;;;-1.78;100.00
45345;BME280;31078;48.304;11.896;2022-12-16T07:45:40;95152.00;;;-1.79;100.00
45345;BME280;31078;48.304;11.896;2022-12-16T07:48:24;95164.84;;;-1.87;100.00
45345;BME280;31078;48.304;11.896;2022-12-16T07:51:09;95174.44;;;-2.11;100.00
45345;BME280;31078;48.304;11.896;2022-12-16T07:53:54;95174.72;;;-1.87;100.00
45345;BME280;31078;48.304;11.896;2022-12-16T07:56:38;95183.50;;;-1.81;100.00
45345;BME280;31078;48.304;11.896;2022-12-16T07:59:22;95185.13;;;-1.86;100.00
45345;BME280;31078;48.304;11.896;2022-12-16T08:02:08;95180.84;;;-1.87;100.00
45345;BME280;31078;48.304;11.896;2022-12-16T08:04:52;95185.63;;;-1.84;100.00
45345;BME280;31078;48.304;11.896;2022-12-16T08:07:38;95190.44;;;-2.01;100.00
45345;BME280;31078;48.304;11.896;2022-12-16T08:10:24;95204.31;;;-2.14;100.00
45345;BME280;31078;48.304;11.896;2022-12-16T08:13:08;95207.53;;;-2.07;100.00
45345;BME280;31078;48.304;11.896;2022-12-16T08:15:52;95205.66;;;-2.01;100.00
45345;BME280;31078;48.304;11.896;2022-12-16T08:18:36;95206.97;;;-1.84;100.00
45345;BME280;31078;48.304;11.896;2022-12-16T08:21:21;95216.06;;;-1.85;100.00
45345;BME280;31078;48.304;11.896;2022-12-16T08:24:05;95225.13;;;-1.86;100.00
45345;BME280;31078;48.304;11.896;2022-12-16T08:26:51;95221.41;;;-1.95;100.00
45345;BME280;31078;48.304;11.896;2022-12-16T08:29:35;95229.69;;;-1.96;100.00
45345;BME280;31078;48.304;11.896;2022-12-16T08:32:19;95232.59;;;-2.08;100.00
45345;BME280;31078;48.304;11.896;2022-12-16T08:35:04;95233.13;;;-2.01;100.00
45345;BME280;31078;48.304;11.896;2022-12-16T08:37:48;95238.19;;;-1.94;100.00
45345;BME280;31078;48.304;11.896;2022-12-16T08:40:32;95244.34;;;-1.84;100.00
45345;BME280;31078;48.304;11.896;2022-12-16T08:43:20;95244.34;;;-1.73;100.00
45345;BME280;31078;48.304;11.896;2022-12-16T08:46:04;95258.75;;;-1.74;100.00
45345;BME280;31078;48.304;11.896;2022-12-16T08:48:48;95257.16;;;-1.75;100.00
45345;BME280;31078;48.304;11.896;2022-12-16T08:51:29;95261.69;;;-1.66;100.00
45345;BME280;31078;48.304;11.896;2022-12-16T08:54:12;95261.94;;;-1.52;100.00
45345;BME280;31078;48.304;11.896;2022-12-16T08:56:57;95261.41;;;-1.49;100.00
45345;BME280;31078;48.304;11.896;2022-12-16T08:59:42;95256.88;;;-1.38;100.00
45345;BME280;31078;48.304;11.896;2022-12-16T09:02:31;95256.59;;;-1.57;100.00
45345;BME280;31078;48.304;11.896;2022-12-16T09:05:16;95266.75;;;-1.59;100.00
45345;BME280;31078;48.304;11.896;2022-12-16T09:08:00;95274.50;;;-1.47;100.00
45345;BME280;31078;48.304;11.896;2022-12-16T09:10:45;95277.72;;;-1.66;100.00
45345;BME280;31078;48.304;11.896;2022-12-16T09:13:28;95282.78;;;-1.49;100.00
45345;BME280;31078;48.304;11.896;2022-12-16T09:16:14;95279.56;;;-1.30;100.00
45345;BME280;31078;48.304;11.896;2022-12-16T09:18:58;95284.34;;;-1.17;100.00
45345;BME280;31078;48.304;11.896;2022-12-16T09:21:42;95292.34;;;-1.12;100.00
45345;BME280;31078;48.304;11.896;2022-12-16T09:24:26;95291.56;;;-1.08;100.00
45345;BME280;31078;48.304;11.896;2022-12-16T09:27:10;95304.91;;;-1.08;100.00
45345;BME280;31078;48.304;11.896;2022-12-16T09:29:54;95301.44;;;-1.08;100.00
45345;BME280;31078;48.304;11.896;2022-12-16T09:32:41;95306.00;;;-1.24;99.99
45345;BME280;31078;48.304;11.896;2022-12-16T09:35:37;95303.56;;;-1.15;100.00
45345;BME280;31078;48.304;11.896;2022-12-16T09:38:21;95314.53;;;-1.47;100.00
45345;BME280;31078;48.304;11.896;2022-12-16T09:41:19;95326.00;;;-1.62;100.00
45345;BME280;31078;48.304;11.896;2022-12-16T09:44:14;95326.03;;;-1.47;100.00
45345;BME280;31078;48.304;11.896;2022-12-16T09:47:07;95338.31;;;-1.71;100.00
45345;BME280;31078;48.304;11.896;2022-12-16T09:49:55;95342.00;;;-1.72;100.00
45345;BME280;31078;48.304;11.896;2022-12-16T09:52:43;95348.97;;;-1.71;100.00
45345;BME280;31078;48.304;11.896;2022-12-16T09:55:30;95349.00;;;-1.51;100.00
45345;BME280;31078;48.304;11.896;2022-12-16T09:58:17;95351.13;;;-1.53;100.00
45345;BME280;31078;48.304;11.896;2022-12-16T10:01:04;95356.47;;;-1.43;100.00
45345;BME280;31078;48.304;11.896;2022-12-16T10:03:48;95353.53;;;-1.36;100.00
45345;BME280;31078;48.304;11.896;2022-12-16T10:06:37;95358.63;;;-1.45;99.93
45345;BME280;31078;48.304;11.896;2022-12-16T10:09:28;95361.28;;;-1.50;100.00
45345;BME280;31078;48.304;11.896;2022-12-16T10:12:24;95361.81;;;-1.38;100.00
45345;BME280;31078;48.304;11.896;2022-12-16T10:15:20;95361.81;;;-1.27;100.00
45345;BME280;31078;48.304;11.896;2022-12-16T10:18:21;95366.63;;;-1.35;100.00
45345;BME280;31078;48.304;11.896;2022-12-16T10:21:12;95370.38;;;-1.41;100.00
45345;BME280;31078;48.304;11.896;2022-12-16T10:24:04;95374.59;;;-1.65;100.00
45345;BME280;31078;48.304;11.896;2022-12-16T10:26:52;95371.16;;;-1.61;100.00
45345;BME280;31078;48.304;11.896;2022-12-16T10:29:42;95375.69;;;-1.51;100.00
45345;BME280;31078;48.304;11.896;2022-12-16T10:32:31;95373.28;;;-1.42;100.00
45345;BME280;31078;48.304;11.896;2022-12-16T10:35:20;95378.09;;;-1.49;99.54
45345;BME280;31078;48.304;11.896;2022-12-16T10:38:08;95380.44;;;-1.78;100.00
45345;BME280;31078;48.304;11.896;2022-12-16T10:40:58;95379.34;;;-1.98;100.00
45345;BME280;31078;48.304;11.896;2022-12-16T10:43:45;95385.53;;;-1.82;100.00
45345;BME280;31078;48.304;11.896;2022-12-16T10:46:32;95380.41;;;-1.89;100.00
45345;BME280;31078;48.304;11.896;2022-12-16T10:49:17;95387.03;;;-2.12;100.00
45345;BME280;31078;48.304;11.896;2022-12-16T10:52:03;95386.72;;;-2.20;100.00
45345;BME280;31078;48.304;11.896;2022-12-16T10:55:11;95391.22;;;-2.26;100.00
45345;BME280;31078;48.304;11.896;2022-12-16T10:58:20;95393.44;;;-2.13;100.00
45345;BME280;31078;48.304;11.896;2022-12-16T11:01:18;95398.03;;;-1.98;100.00
45345;BME280;31078;48.304;11.896;2022-12-16T11:04:26;95395.38;;;-1.93;100.00
45345;BME280;31078;48.304;11.896;2022-12-16T11:07:25;95394.78;;;-2.00;100.00
45345;BME280;31078;48.304;11.896;2022-12-16T11:10:29;95392.31;;;-2.22;100.00
45345;BME280;31078;48.304;11.896;2022-12-16T11:13:20;95395.00;;;-2.17;100.00
45345;BME280;31078;48.304;11.896;2022-12-16T11:16:21;95398.00;;;-2.08;100.00
45345;BME280;31078;48.304;11.896;2022-12-16T11:19:18;95398.00;;;-2.03;100.00
45345;BME280;31078;48.304;11.896;2022-12-16T11:22:05;95400.09;;;-2.10;100.00
45345;BME280;31078;48.304;11.896;2022-12-16T11:25:03;95406.59;;;-1.86;100.00
45345;BME280;31078;48.304;11.896;2022-12-16T11:27:47;95408.75;;;-1.77;100.00
45345;BME280;31078;48.304;11.896;2022-12-16T11:30:33;95404.22;;;-1.77;100.00
45345;BME280;31078;48.304;11.896;2022-12-16T11:33:20;95401.84;;;-1.58;100.00
45345;BME280;31078;48.304;11.896;2022-12-16T11:36:15;95406.09;;;-1.62;100.00
45345;BME280;31078;48.304;11.896;2022-12-16T11:39:00;95403.94;;;-1.80;99.63
45345;BME280;31078;48.304;11.896;2022-12-16T11:41:46;95415.69;;;-1.76;100.00
45345;BME280;31078;48.304;11.896;2022-12-16T11:44:35;95407.13;;;-1.78;100.00
45345;BME280;31078;48.304;11.896;2022-12-16T11:47:34;95418.38;;;-1.71;100.00
45345;BME280;31078;48.304;11.896;2022-12-16T11:50:19;95412.25;;;-1.62;99.91
45345;BME280;31078;48.304;11.896;2022-12-16T11:53:21;95419.47;;;-1.57;99.79
45345;BME280;31078;48.304;11.896;2022-12-16T11:56:11;95416.25;;;-1.59;98.68
45345;BME280;31078;48.304;11.896;2022-12-16T11:59:01;95425.59;;;-1.67;98.61
45345;BME280;31078;48.304;11.896;2022-12-16T12:01:51;95425.31;;;-1.65;99.02
45345;BME280;31078;48.304;11.896;2022-12-16T12:04:49;95414.41;;;-1.53;98.98
45345;BME280;31078;48.304;11.896;2022-12-16T12:07:36;95413.31;;;-1.63;98.99
45345;BME280;31078;48.304;11.896;2022-12-16T12:10:43;95413.25;;;-1.83;99.71
45345;BME280;31078;48.304;11.896;2022-12-16T12:13:55;95430.84;;;-1.97;100.00
45345;BME280;31078;48.304;11.896;2022-12-16T12:16:53;95434.38;;;-1.71;100.00
45345;BME280;31078;48.304;11.896;2022-12-16T12:19:51;95443.47;;;-1.62;100.00
45345;BME280;31078;48.304;11.896;2022-12-16T12:22:38;95443.50;;;-1.52;100.00
45345;BME280;31078;48.304;11.896;2022-12-16T12:25:26;95434.88;;;-1.85;100.00
45345;BME280;31078;48.304;11.896;2022-12-16T12:28:22;95430.59;;;-1.86;100.00
45345;BME280;31078;48.304;11.896;2022-12-16T12:31:18;95445.53;;;-1.90;100.00
45345;BME280;31078;48.304;11.896;2022-12-16T12:34:12;95454.97;;;-1.62;100.00
45345;BME280;31078;48.304;11.896;2022-12-16T12:37:06;95450.13;;;-1.75;100.00
45345;BME280;31078;48.304;11.896;2022-12-16T12:39:57;95446.94;;;-1.67;100.00
45345;BME280;31078;48.304;11.896;2022-12-16T12:42:48;95451.50;;;-1.52;100.00
45345;BME280;31078;48.304;11.896;2022-12-16T12:45:45;95451.50;;;-1.47;99.16
45345;BME280;31078;48.304;11.896;2022-12-16T12:48:34;95450.41;;;-1.66;99.76
45345;BME280;31078;48.304;11.896;2022-12-16T12:51:25;95450.66;;;-1.73;100.00
45345;BME280;31078;48.304;11.896;2022-12-16T12:54:18;95454.41;;;-1.64;100.00
45345;BME280;31078;48.304;11.896;2022-12-16T12:57:08;95459.78;;;-1.59;99.88
45345;BME280;31078;48.304;11.896;2022-12-16T12:59:59;95466.75;;;-1.47;98.78
45345;BME280;31078;48.304;11.896;2022-12-16T13:02:48;95465.94;;;-1.48;97.98
45345;BME280;31078;48.304;11.896;2022-12-16T13:05:36;95464.38;;;-1.39;97.91
45345;BME280;31078;48.304;11.896;2022-12-16T13:08:41;95471.28;;;-1.43;97.15
45345;BME280;31078;48.304;11.896;2022-12-16T13:11:27;95473.97;;;-1.38;97.09
45345;BME280;31078;48.304;11.896;2022-12-16T13:18:12;95474.25;;;-1.39;96.52
45345;BME280;31078;48.304;11.896;2022-12-16T13:20:57;95475.59;;;-1.32;96.85
45345;BME280;31078;48.304;11.896;2022-12-16T13:23:42;95492.69;;;-1.33;96.45
45345;BME280;31078;48.304;11.896;2022-12-16T13:26:30;95494.56;;;-1.33;96.42
45345;BME280;31078;48.304;11.896;2022-12-16T13:29:19;95498.28;;;-1.34;96.59
45345;BME280;31078;48.304;11.896;2022-12-16T13:32:17;95502.81;;;-1.45;96.60
45345;BME280;31078;48.304;11.896;2022-12-16T13:35:04;95504.16;;;-1.32;96.96
45345;BME280;31078;48.304;11.896;2022-12-16T13:37:59;95503.59;;;-1.44;96.74
45345;BME280;31078;48.304;11.896;2022-12-16T13:40:51;95510.25;;;-1.47;97.32
45345;BME280;31078;48.304;11.896;2022-12-16T13:43:56;95521.44;;;-1.60;97.90
45345;BME280;31078;48.304;11.896;2022-12-16T13:46:42;95530.03;;;-1.48;97.91
45345;BME280;31078;48.304;11.896;2022-12-16T13:49:42;95537.88;;;-1.84;99.21
45345;BME280;31078;48.304;11.896;2022-12-16T13:52:34;95542.19;;;-1.77;99.47
45345;BME280;31078;48.304;11.896;2022-12-16T13:55:25;95541.03;;;-1.97;100.00
45345;BME280;31078;48.304;11.896;2022-12-16T13:58:28;95552.00;;;-1.83;99.58
45345;BME280;31078;48.304;11.896;2022-12-16T14:01:18;95547.00;;;-1.74;98.92
45345;BME280;31078;48.304;11.896;2022-12-16T14:04:08;95556.59;;;-1.78;98.48
45345;BME280;31078;48.304;11.896;2022-12-16T14:06:58;95557.69;;;-1.74;98.80